sensor_id;sensor_type;location;lat;lon;timestamp;P1;durP1;ratioP1;P2;durP2;ratioP2
52668;SDS011;59898;52.786;6.892;2022-07-06T00:02:02;6.10;;;2.30;;
52668;SDS011;59898;52.786;6.892;2022-07-06T00:05:23;3.85;;;2.60;;
52668;SDS011;59898;52.786;6.892;2022-07-06T00:08:45;4.25;;;2.90;;
52668;SDS011;59898;52.786;6.892;2022-07-06T00:12:05;7.15;;;2.90;;
52668;SDS011;59898;52.786;6.892;2022-07-06T00:15:26;5.00;;;2.70;;
52668;SDS011;59898;52.786;6.892;2022-07-06T00:18:47;4.88;;;3.58;;
52668;SDS011;59898;52.786;6.892;2022-07-06T00:22:08;4.70;;;2.85;;
52668;SDS011;59898;52.786;6.892;2022-07-06T00:25:29;6.30;;;2.80;;
52668;SDS011;59898;52.786;6.892;2022-07-06T00:28:49;4.43;;;1.95;;
52668;SDS011;59898;52.786;6.892;2022-07-06T00:32:10;3.10;;;2.17;;
52668;SDS011;59898;52.786;6.892;2022-07-06T00:35:31;3.00;;;1.90;;
52668;SDS011;59898;52.786;6.892;2022-07-06T00:38:52;4.05;;;2.20;;
52668;SDS011;59898;52.786;6.892;2022-07-06T00:42:13;5.25;;;2.70;;
52668;SDS011;59898;52.786;6.892;2022-07-06T00:45:34;7.57;;;2.42;;
52668;SDS011;59898;52.786;6.892;2022-07-06T00:48:56;6.70;;;3.47;;
52668;SDS011;59898;52.786;6.892;2022-07-06T00:52:17;6.13;;;2.23;;
52668;SDS011;59898;52.786;6.892;2022-07-06T01:05:57;8.32;;;2.63;;
52668;SDS011;59898;52.786;6.892;2022-07-06T01:09:18;6.35;;;2.85;;
52668;SDS011;59898;52.786;6.892;2022-07-06T01:12:42;3.03;;;2.28;;
52668;SDS011;59898;52.786;6.892;2022-07-06T01:16:03;6.57;;;2.67;;
52668;SDS011;59898;52.786;6.892;2022-07-06T01:19:24;6.43;;;3.72;;
52668;SDS011;59898;52.786;6.892;2022-07-06T01:22:45;5.20;;;2.65;;
52668;SDS011;59898;52.786;6.892;2022-07-06T01:26:08;4.97;;;1.98;;
52668;SDS011;59898;52.786;6.892;2022-07-06T01:29:33;6.13;;;2.53;;
52668;SDS011;59898;52.786;6.892;2022-07-06T01:32:54;4.50;;;2.05;;
52668;SDS011;59898;52.786;6.892;2022-07-06T01:36:15;4.63;;;2.13;;
52668;SDS011;59898;52.786;6.892;2022-07-06T01:39:36;4.70;;;2.50;;
52668;SDS011;59898;52.786;6.892;2022-07-06T01:42:56;6.38;;;2.70;;
52668;SDS011;59898;52.786;6.892;2022-07-06T01:46:17;5.78;;;2.50;;
52668;SDS011;59898;52.786;6.892;2022-07-06T01:49:39;5.10;;;2.50;;
52668;SDS011;59898;52.786;6.892;2022-07-06T01:53:00;4.28;;;2.40;;
52668;SDS011;59898;52.786;6.892;2022-07-06T01:56:20;2.88;;;2.35;;
52668;SDS011;59898;52.786;6.892;2022-07-06T01:59:41;6.18;;;3.03;;
52668;SDS011;59898;52.786;6.892;2022-07-06T02:03:02;4.63;;;2.58;;
52668;SDS011;59898;52.786;6.892;2022-07-06T02:06:23;4.30;;;2.70;;
52668;SDS011;59898;52.786;6.892;2022-07-06T02:09:44;6.68;;;2.60;;
52668;SDS011;59898;52.786;6.892;2022-07-06T02:13:04;3.70;;;2.63;;
52668;SDS011;59898;52.786;6.892;2022-07-06T02:16:25;5.75;;;2.30;;
52668;SDS011;59898;52.786;6.892;2022-07-06T02:19:46;5.03;;;2.42;;
52668;SDS011;59898;52.786;6.892;2022-07-06T02:23:06;3.80;;;2.50;;
52668;SDS011;59898;52.786;6.892;2022-07-06T02:26:27;5.40;;;2.55;;
52668;SDS011;59898;52.786;6.892;2022-07-06T02:29:48;6.65;;;2.38;;
52668;SDS011;59898;52.786;6.892;2022-07-06T02:33:08;5.35;;;2.67;;
52668;SDS011;59898;52.786;6.892;2022-07-06T02:36:29;5.40;;;2.15;;
52668;SDS011;59898;52.786;6.892;2022-07-06T02:39:50;4.40;;;2.50;;
52668;SDS011;59898;52.786;6.892;2022-07-06T02:43:10;5.75;;;2.58;;
52668;SDS011;59898;52.786;6.892;2022-07-06T02:46:31;7.15;;;2.58;;
52668;SDS011;59898;52.786;6.892;2022-07-06T02:49:52;5.38;;;2.75;;
52668;SDS011;59898;52.786;6.892;2022-07-06T02:53:13;7.38;;;3.70;;
52668;SDS011;59898;52.786;6.892;2022-07-06T02:56:34;5.22;;;2.40;;
52668;SDS011;59898;52.786;6.892;2022-07-06T02:59:54;7.55;;;2.58;;
52668;SDS011;59898;52.786;6.892;2022-07-06T03:03:15;12.00;;;3.75;;
52668;SDS011;59898;52.786;6.892;2022-07-06T03:06:35;3.70;;;2.13;;
52668;SDS011;59898;52.786;6.892;2022-07-06T03:09:56;5.95;;;2.80;;
52668;SDS011;59898;52.786;6.892;2022-07-06T03:13:17;6.53;;;2.53;;
52668;SDS011;59898;52.786;6.892;2022-07-06T03:16:37;6.00;;;2.65;;
52668;SDS011;59898;52.786;6.892;2022-07-06T03:19:58;7.15;;;2.55;;
52668;SDS011;59898;52.786;6.892;2022-07-06T03:23:19;3.67;;;2.53;;
52668;SDS011;59898;52.786;6.892;2022-07-06T03:26:39;3.80;;;2.00;;
52668;SDS011;59898;52.786;6.892;2022-07-06T03:30:01;3.22;;;2.05;;
52668;SDS011;59898;52.786;6.892;2022-07-06T03:33:22;9.18;;;2.58;;
52668;SDS011;59898;52.786;6.892;2022-07-06T03:36:42;9.68;;;2.40;;
52668;SDS011;59898;52.786;6.892;2022-07-06T03:40:03;4.88;;;2.47;;
52668;SDS011;59898;52.786;6.892;2022-07-06T03:43:24;4.30;;;2.20;;
52668;SDS011;59898;52.786;6.892;2022-07-06T03:46:45;3.75;;;2.35;;
52668;SDS011;59898;52.786;6.892;2022-07-06T03:50:06;4.18;;;2.63;;
52668;SDS011;59898;52.786;6.892;2022-07-06T03:53:27;5.00;;;2.55;;
52668;SDS011;59898;52.786;6.892;2022-07-06T03:56:48;8.52;;;3.53;;
52668;SDS011;59898;52.786;6.892;2022-07-06T04:00:09;4.63;;;2.80;;
52668;SDS011;59898;52.786;6.892;2022-07-06T04:03:30;5.43;;;2.60;;
52668;SDS011;59898;52.786;6.892;2022-07-06T04:06:51;4.32;;;2.28;;
52668;SDS011;59898;52.786;6.892;2022-07-06T04:10:11;6.88;;;2.25;;
52668;SDS011;59898;52.786;6.892;2022-07-06T04:13:32;3.15;;;2.10;;
52668;SDS011;59898;52.786;6.892;2022-07-06T04:16:53;8.63;;;2.72;;
52668;SDS011;59898;52.786;6.892;2022-07-06T04:20:13;6.55;;;2.50;;
52668;SDS011;59898;52.786;6.892;2022-07-06T04:23:34;5.72;;;3.83;;
52668;SDS011;59898;52.786;6.892;2022-07-06T04:26:55;4.97;;;2.40;;
52668;SDS011;59898;52.786;6.892;2022-07-06T04:30:16;3.88;;;2.22;;
52668;SDS011;59898;52.786;6.892;2022-07-06T04:33:36;5.10;;;2.55;;
52668;SDS011;59898;52.786;6.892;2022-07-06T04:36:57;5.15;;;2.38;;
52668;SDS011;59898;52.786;6.892;2022-07-06T04:40:18;5.97;;;2.70;;
52668;SDS011;59898;52.786;6.892;2022-07-06T04:43:38;4.78;;;2.35;;
52668;SDS011;59898;52.786;6.892;2022-07-06T04:46:59;5.20;;;2.60;;
52668;SDS011;59898;52.786;6.892;2022-07-06T04:50:20;4.88;;;2.30;;
52668;SDS011;59898;52.786;6.892;2022-07-06T04:53:41;5.35;;;2.40;;
52668;SDS011;59898;52.786;6.892;2022-07-06T04:57:01;4.55;;;2.50;;
52668;SDS011;59898;52.786;6.892;2022-07-06T05:00:23;6.53;;;2.85;;
52668;SDS011;59898;52.786;6.892;2022-07-06T05:03:43;7.22;;;3.53;;
52668;SDS011;59898;52.786;6.892;2022-07-06T05:07:04;6.25;;;2.60;;
52668;SDS011;59898;52.786;6.892;2022-07-06T05:10:25;4.80;;;2.75;;
52668;SDS011;59898;52.786;6.892;2022-07-06T05:13:46;3.42;;;2.10;;
52668;SDS011;59898;52.786;6.892;2022-07-06T05:17:06;3.63;;;2.92;;
52668;SDS011;59898;52.786;6.892;2022-07-06T05:20:27;9.13;;;2.78;;
52668;SDS011;59898;52.786;6.892;2022-07-06T05:23:48;5.53;;;2.17;;
52668;SDS011;59898;52.786;6.892;2022-07-06T05:27:08;5.72;;;2.40;;
52668;SDS011;59898;52.786;6.892;2022-07-06T05:30:29;4.60;;;2.58;;
52668;SDS011;59898;52.786;6.892;2022-07-06T05:33:50;6.13;;;2.10;;
52668;SDS011;59898;52.786;6.892;2022-07-06T05:37:11;4.55;;;2.55;;
52668;SDS011;59898;52.786;6.892;2022-07-06T05:40:31;4.63;;;1.95;;
52668;SDS011;59898;52.786;6.892;2022-07-06T05:43:52;4.50;;;1.92;;
52668;SDS011;59898;52.786;6.892;2022-07-06T05:47:13;3.88;;;1.95;;
52668;SDS011;59898;52.786;6.892;2022-07-06T05:50:52;4.18;;;1.90;;
52668;SDS011;59898;52.786;6.892;2022-07-06T05:54:13;3.83;;;1.80;;
52668;SDS011;59898;52.786;6.892;2022-07-06T05:57:34;14.27;;;2.58;;
52668;SDS011;59898;52.786;6.892;2022-07-06T06:00:54;6.07;;;1.80;;
52668;SDS011;59898;52.786;6.892;2022-07-06T06:04:15;5.35;;;1.70;;
52668;SDS011;59898;52.786;6.892;2022-07-06T06:07:36;5.40;;;1.90;;
52668;SDS011;59898;52.786;6.892;2022-07-06T06:10:58;9.43;;;3.00;;
52668;SDS011;59898;52.786;6.892;2022-07-06T06:14:18;6.40;;;1.70;;
52668;SDS011;59898;52.786;6.892;2022-07-06T06:17:39;7.20;;;4.18;;
52668;SDS011;59898;52.786;6.892;2022-07-06T06:21:00;4.97;;;1.75;;
52668;SDS011;59898;52.786;6.892;2022-07-06T06:24:21;4.80;;;2.20;;
52668;SDS011;59898;52.786;6.892;2022-07-06T06:27:44;3.72;;;2.00;;
52668;SDS011;59898;52.786;6.892;2022-07-06T06:31:05;3.92;;;1.75;;
52668;SDS011;59898;52.786;6.892;2022-07-06T06:34:26;7.22;;;1.80;;
52668;SDS011;59898;52.786;6.892;2022-07-06T06:37:46;5.45;;;1.58;;
52668;SDS011;59898;52.786;6.892;2022-07-06T06:41:07;4.40;;;1.77;;
52668;SDS011;59898;52.786;6.892;2022-07-06T06:44:28;4.82;;;1.80;;
52668;SDS011;59898;52.786;6.892;2022-07-06T06:47:48;12.25;;;2.80;;
52668;SDS011;59898;52.786;6.892;2022-07-06T06:51:09;3.80;;;2.30;;
52668;SDS011;59898;52.786;6.892;2022-07-06T06:54:30;4.20;;;1.75;;
52668;SDS011;59898;52.786;6.892;2022-07-06T06:57:50;3.40;;;2.00;;
52668;SDS011;59898;52.786;6.892;2022-07-06T07:01:11;6.45;;;3.13;;
52668;SDS011;59898;52.786;6.892;2022-07-06T07:04:32;7.60;;;3.22;;
52668;SDS011;59898;52.786;6.892;2022-07-06T07:07:52;6.68;;;1.65;;
52668;SDS011;59898;52.786;6.892;2022-07-06T07:11:14;5.50;;;1.70;;
52668;SDS011;59898;52.786;6.892;2022-07-06T07:14:35;5.65;;;2.05;;
52668;SDS011;59898;52.786;6.892;2022-07-06T07:17:56;4.57;;;1.80;;
52668;SDS011;59898;52.786;6.892;2022-07-06T07:21:17;2.83;;;1.58;;
52668;SDS011;59898;52.786;6.892;2022-07-06T07:24:38;5.38;;;1.80;;
52668;SDS011;59898;52.786;6.892;2022-07-06T07:27:59;5.03;;;1.60;;
52668;SDS011;59898;52.786;6.892;2022-07-06T07:31:19;3.72;;;1.80;;
52668;SDS011;59898;52.786;6.892;2022-07-06T07:34:41;3.50;;;2.08;;
52668;SDS011;59898;52.786;6.892;2022-07-06T07:38:02;5.47;;;2.40;;
52668;SDS011;59898;52.786;6.892;2022-07-06T07:41:22;6.32;;;1.77;;
52668;SDS011;59898;52.786;6.892;2022-07-06T07:44:43;11.50;;;1.77;;
52668;SDS011;59898;52.786;6.892;2022-07-06T07:48:04;13.75;;;1.98;;
52668;SDS011;59898;52.786;6.892;2022-07-06T07:51:25;3.53;;;1.60;;
52668;SDS011;59898;52.786;6.892;2022-07-06T07:54:45;5.78;;;1.83;;
52668;SDS011;59898;52.786;6.892;2022-07-06T07:58:06;4.57;;;1.70;;
52668;SDS011;59898;52.786;6.892;2022-07-06T08:01:27;5.35;;;1.95;;
52668;SDS011;59898;52.786;6.892;2022-07-06T08:04:48;6.75;;;1.60;;
52668;SDS011;59898;52.786;6.892;2022-07-06T08:08:08;9.80;;;5.13;;
52668;SDS011;59898;52.786;6.892;2022-07-06T08:11:29;7.43;;;3.28;;
52668;SDS011;59898;52.786;6.892;2022-07-06T08:14:50;5.00;;;1.55;;
52668;SDS011;59898;52.786;6.892;2022-07-06T08:18:10;7.80;;;2.03;;
52668;SDS011;59898;52.786;6.892;2022-07-06T08:21:31;4.93;;;2.30;;
52668;SDS011;59898;52.786;6.892;2022-07-06T08:24:52;3.53;;;2.33;;
52668;SDS011;59898;52.786;6.892;2022-07-06T08:28:12;4.68;;;2.00;;
52668;SDS011;59898;52.786;6.892;2022-07-06T08:31:33;4.68;;;1.77;;
52668;SDS011;59898;52.786;6.892;2022-07-06T08:34:54;7.03;;;2.03;;
52668;SDS011;59898;52.786;6.892;2022-07-06T08:38:15;3.85;;;1.83;;
52668;SDS011;59898;52.786;6.892;2022-07-06T08:41:36;6.82;;;1.67;;
52668;SDS011;59898;52.786;6.892;2022-07-06T08:44:59;6.57;;;1.98;;
52668;SDS011;59898;52.786;6.892;2022-07-06T08:48:22;5.22;;;1.60;;
52668;SDS011;59898;52.786;6.892;2022-07-06T08:51:44;3.50;;;1.60;;
52668;SDS011;59898;52.786;6.892;2022-07-06T08:55:06;6.10;;;2.00;;
52668;SDS011;59898;52.786;6.892;2022-07-06T08:58:29;3.10;;;1.60;;
52668;SDS011;59898;52.786;6.892;2022-07-06T09:01:50;4.93;;;1.85;;
52668;SDS011;59898;52.786;6.892;2022-07-06T09:05:13;7.45;;;1.73;;
52668;SDS011;59898;52.786;6.892;2022-07-06T09:08:36;3.47;;;1.45;;
52668;SDS011;59898;52.786;6.892;2022-07-06T09:11:57;5.43;;;2.53;;
52668;SDS011;59898;52.786;6.892;2022-07-06T09:15:18;3.65;;;1.88;;
52668;SDS011;59898;52.786;6.892;2022-07-06T09:18:44;8.10;;;2.10;;
52668;SDS011;59898;52.786;6.892;2022-07-06T09:22:05;6.90;;;1.80;;
52668;SDS011;59898;52.786;6.892;2022-07-06T09:25:26;5.30;;;1.30;;
52668;SDS011;59898;52.786;6.892;2022-07-06T09:28:47;5.93;;;1.90;;
52668;SDS011;59898;52.786;6.892;2022-07-06T09:32:08;3.80;;;1.80;;
52668;SDS011;59898;52.786;6.892;2022-07-06T09:35:30;1.83;;;1.70;;
52668;SDS011;59898;52.786;6.892;2022-07-06T09:38:55;4.72;;;1.70;;
52668;SDS011;59898;52.786;6.892;2022-07-06T09:42:16;4.28;;;2.03;;
52668;SDS011;59898;52.786;6.892;2022-07-06T09:45:52;3.25;;;1.65;;
52668;SDS011;59898;52.786;6.892;2022-07-06T09:49:21;4.47;;;1.60;;
52668;SDS011;59898;52.786;6.892;2022-07-06T09:52:52;3.13;;;1.80;;
52668;SDS011;59898;52.786;6.892;2022-07-06T09:56:15;6.00;;;2.22;;
52668;SDS011;59898;52.786;6.892;2022-07-06T09:59:38;7.97;;;1.80;;
52668;SDS011;59898;52.786;6.892;2022-07-06T10:02:59;4.53;;;1.70;;
52668;SDS011;59898;52.786;6.892;2022-07-06T10:06:20;2.83;;;1.70;;
52668;SDS011;59898;52.786;6.892;2022-07-06T10:09:41;6.88;;;1.63;;
52668;SDS011;59898;52.786;6.892;2022-07-06T10:13:02;2.80;;;2.08;;
52668;SDS011;59898;52.786;6.892;2022-07-06T10:16:26;9.25;;;2.15;;
52668;SDS011;59898;52.786;6.892;2022-07-06T10:19:46;7.35;;;3.95;;
52668;SDS011;59898;52.786;6.892;2022-07-06T10:23:08;4.43;;;1.70;;
52668;SDS011;59898;52.786;6.892;2022-07-06T10:26:29;2.53;;;1.73;;
52668;SDS011;59898;52.786;6.892;2022-07-06T10:29:51;2.63;;;1.57;;
52668;SDS011;59898;52.786;6.892;2022-07-06T10:33:12;2.10;;;1.75;;
52668;SDS011;59898;52.786;6.892;2022-07-06T10:36:38;4.50;;;1.70;;
52668;SDS011;59898;52.786;6.892;2022-07-06T10:40:00;3.22;;;1.85;;
52668;SDS011;59898;52.786;6.892;2022-07-06T10:43:43;2.53;;;1.30;;
52668;SDS011;59898;52.786;6.892;2022-07-06T10:47:05;2.35;;;1.55;;
52668;SDS011;59898;52.786;6.892;2022-07-06T10:50:32;2.10;;;1.40;;
52668;SDS011;59898;52.786;6.892;2022-07-06T10:53:55;3.13;;;1.60;;
52668;SDS011;59898;52.786;6.892;2022-07-06T11:04:12;3.10;;;1.70;;
52668;SDS011;59898;52.786;6.892;2022-07-06T11:07:35;3.05;;;1.60;;
52668;SDS011;59898;52.786;6.892;2022-07-06T11:11:14;2.28;;;1.50;;
52668;SDS011;59898;52.786;6.892;2022-07-06T11:14:37;3.08;;;1.52;;
52668;SDS011;59898;52.786;6.892;2022-07-06T11:18:11;2.78;;;1.75;;
52668;SDS011;59898;52.786;6.892;2022-07-06T11:24:59;2.53;;;1.50;;
52668;SDS011;59898;52.786;6.892;2022-07-06T11:28:20;1.95;;;1.50;;
52668;SDS011;59898;52.786;6.892;2022-07-06T11:31:42;11.23;;;2.72;;
52668;SDS011;59898;52.786;6.892;2022-07-06T11:35:04;5.65;;;2.30;;
52668;SDS011;59898;52.786;6.892;2022-07-06T11:38:25;3.17;;;1.73;;
52668;SDS011;59898;52.786;6.892;2022-07-06T11:41:46;4.93;;;1.80;;
52668;SDS011;59898;52.786;6.892;2022-07-06T11:45:07;2.95;;;1.63;;
52668;SDS011;59898;52.786;6.892;2022-07-06T11:48:28;5.40;;;1.75;;
52668;SDS011;59898;52.786;6.892;2022-07-06T11:51:49;6.80;;;1.90;;
52668;SDS011;59898;52.786;6.892;2022-07-06T11:55:09;4.13;;;2.28;;
52668;SDS011;59898;52.786;6.892;2022-07-06T11:58:34;4.20;;;2.80;;
52668;SDS011;59898;52.786;6.892;2022-07-06T12:05:31;2.13;;;1.50;;
52668;SDS011;59898;52.786;6.892;2022-07-06T12:08:53;2.45;;;1.40;;
52668;SDS011;59898;52.786;6.892;2022-07-06T12:12:16;2.75;;;1.90;;
52668;SDS011;59898;52.786;6.892;2022-07-06T12:15:37;4.45;;;2.00;;
52668;SDS011;59898;52.786;6.892;2022-07-06T12:18:58;2.53;;;1.40;;
52668;SDS011;59898;52.786;6.892;2022-07-06T12:22:24;5.80;;;1.60;;
52668;SDS011;59898;52.786;6.892;2022-07-06T12:25:45;6.05;;;1.70;;
52668;SDS011;59898;52.786;6.892;2022-07-06T12:29:07;3.85;;;1.90;;
52668;SDS011;59898;52.786;6.892;2022-07-06T12:32:30;4.57;;;1.63;;
52668;SDS011;59898;52.786;6.892;2022-07-06T12:35:51;6.50;;;1.90;;
52668;SDS011;59898;52.786;6.892;2022-07-06T12:39:12;3.25;;;1.73;;
52668;SDS011;59898;52.786;6.892;2022-07-06T12:42:45;1.50;;;1.40;;
52668;SDS011;59898;52.786;6.892;2022-07-06T12:49:48;3.85;;;1.67;;
52668;SDS011;59898;52.786;6.892;2022-07-06T12:53:24;2.28;;;1.42;;
52668;SDS011;59898;52.786;6.892;2022-07-06T13:00:48;2.65;;;1.50;;
52668;SDS011;59898;52.786;6.892;2022-07-06T13:04:08;3.83;;;1.50;;
52668;SDS011;59898;52.786;6.892;2022-07-06T13:07:30;8.13;;;1.83;;
52668;SDS011;59898;52.786;6.892;2022-07-06T13:10:52;5.88;;;1.88;;
52668;SDS011;59898;52.786;6.892;2022-07-06T13:14:13;11.13;;;2.10;;
52668;SDS011;59898;52.786;6.892;2022-07-06T13:17:38;8.73;;;1.90;;
52668;SDS011;59898;52.786;6.892;2022-07-06T13:20:59;2.42;;;1.50;;
52668;SDS011;59898;52.786;6.892;2022-07-06T13:24:19;5.20;;;1.60;;
52668;SDS011;59898;52.786;6.892;2022-07-06T13:27:40;3.60;;;1.40;;
52668;SDS011;59898;52.786;6.892;2022-07-06T13:31:01;2.97;;;1.73;;
52668;SDS011;59898;52.786;6.892;2022-07-06T13:34:22;6.35;;;2.10;;
52668;SDS011;59898;52.786;6.892;2022-07-06T13:37:43;2.10;;;1.50;;
52668;SDS011;59898;52.786;6.892;2022-07-06T13:41:07;3.53;;;2.05;;
52668;SDS011;59898;52.786;6.892;2022-07-06T13:44:29;2.63;;;1.60;;
52668;SDS011;59898;52.786;6.892;2022-07-06T13:47:49;3.58;;;2.05;;
52668;SDS011;59898;52.786;6.892;2022-07-06T13:51:10;1.98;;;1.60;;
52668;SDS011;59898;52.786;6.892;2022-07-06T13:54:31;2.40;;;1.70;;
52668;SDS011;59898;52.786;6.892;2022-07-06T13:57:52;4.18;;;1.50;;
52668;SDS011;59898;52.786;6.892;2022-07-06T14:01:13;2.83;;;1.90;;
52668;SDS011;59898;52.786;6.892;2022-07-06T14:04:34;2.78;;;1.77;;
52668;SDS011;59898;52.786;6.892;2022-07-06T14:07:55;4.18;;;1.60;;
52668;SDS011;59898;52.786;6.892;2022-07-06T14:11:16;4.57;;;1.88;;
52668;SDS011;59898;52.786;6.892;2022-07-06T14:14:37;3.00;;;1.60;;
52668;SDS011;59898;52.786;6.892;2022-07-06T14:17:57;2.05;;;1.63;;
52668;SDS011;59898;52.786;6.892;2022-07-06T14:21:18;4.95;;;1.75;;
52668;SDS011;59898;52.786;6.892;2022-07-06T14:24:39;3.75;;;2.00;;
52668;SDS011;59898;52.786;6.892;2022-07-06T14:27:59;3.33;;;1.67;;
52668;SDS011;59898;52.786;6.892;2022-07-06T14:31:22;3.97;;;2.92;;
52668;SDS011;59898;52.786;6.892;2022-07-06T14:34:42;4.38;;;2.03;;
52668;SDS011;59898;52.786;6.892;2022-07-06T14:38:03;2.10;;;1.50;;
52668;SDS011;59898;52.786;6.892;2022-07-06T14:41:25;2.03;;;1.63;;
52668;SDS011;59898;52.786;6.892;2022-07-06T14:44:45;4.07;;;1.77;;
52668;SDS011;59898;52.786;6.892;2022-07-06T14:48:06;5.07;;;1.50;;
52668;SDS011;59898;52.786;6.892;2022-07-06T14:51:27;5.15;;;1.60;;
52668;SDS011;59898;52.786;6.892;2022-07-06T14:54:48;3.83;;;1.60;;
52668;SDS011;59898;52.786;6.892;2022-07-06T14:58:09;2.88;;;1.38;;
52668;SDS011;59898;52.786;6.892;2022-07-06T15:01:29;3.58;;;1.75;;
52668;SDS011;59898;52.786;6.892;2022-07-06T15:04:50;2.40;;;1.60;;
52668;SDS011;59898;52.786;6.892;2022-07-06T15:08:11;4.45;;;1.50;;
52668;SDS011;59898;52.786;6.892;2022-07-06T15:11:34;4.05;;;1.70;;
52668;SDS011;59898;52.786;6.892;2022-07-06T15:14:55;2.47;;;1.67;;
52668;SDS011;59898;52.786;6.892;2022-07-06T15:18:16;5.68;;;2.15;;
52668;SDS011;59898;52.786;6.892;2022-07-06T15:21:36;5.78;;;2.20;;
52668;SDS011;59898;52.786;6.892;2022-07-06T15:24:57;5.45;;;1.83;;
52668;SDS011;59898;52.786;6.892;2022-07-06T15:28:18;2.60;;;1.60;;
52668;SDS011;59898;52.786;6.892;2022-07-06T15:31:39;5.13;;;3.30;;
52668;SDS011;59898;52.786;6.892;2022-07-06T15:35:00;3.25;;;1.65;;
52668;SDS011;59898;52.786;6.892;2022-07-06T15:38:20;8.55;;;5.95;;
52668;SDS011;59898;52.786;6.892;2022-07-06T15:41:41;3.17;;;2.20;;
52668;SDS011;59898;52.786;6.892;2022-07-06T15:45:02;4.40;;;1.95;;
52668;SDS011;59898;52.786;6.892;2022-07-06T15:48:23;4.22;;;2.25;;
52668;SDS011;59898;52.786;6.892;2022-07-06T15:51:44;2.95;;;1.85;;
52668;SDS011;59898;52.786;6.892;2022-07-06T15:55:05;6.07;;;2.00;;
52668;SDS011;59898;52.786;6.892;2022-07-06T15:58:26;4.57;;;1.90;;
52668;SDS011;59898;52.786;6.892;2022-07-06T16:01:47;3.88;;;2.13;;
52668;SDS011;59898;52.786;6.892;2022-07-06T16:05:08;3.80;;;2.17;;
52668;SDS011;59898;52.786;6.892;2022-07-06T16:08:28;2.55;;;2.15;;
52668;SDS011;59898;52.786;6.892;2022-07-06T16:11:50;4.50;;;2.80;;
52668;SDS011;59898;52.786;6.892;2022-07-06T16:15:10;3.20;;;2.20;;
52668;SDS011;59898;52.786;6.892;2022-07-06T16:18:31;3.70;;;1.92;;
52668;SDS011;59898;52.786;6.892;2022-07-06T16:21:52;4.63;;;2.10;;
52668;SDS011;59898;52.786;6.892;2022-07-06T16:25:13;3.72;;;1.88;;
52668;SDS011;59898;52.786;6.892;2022-07-06T16:28:35;3.17;;;2.13;;
52668;SDS011;59898;52.786;6.892;2022-07-06T16:31:56;6.60;;;3.13;;
52668;SDS011;59898;52.786;6.892;2022-07-06T16:35:17;3.97;;;2.20;;
52668;SDS011;59898;52.786;6.892;2022-07-06T16:38:38;4.50;;;2.10;;
52668;SDS011;59898;52.786;6.892;2022-07-06T16:41:59;7.68;;;2.42;;
52668;SDS011;59898;52.786;6.892;2022-07-06T16:45:20;5.10;;;2.35;;
52668;SDS011;59898;52.786;6.892;2022-07-06T16:48:41;6.70;;;2.40;;
52668;SDS011;59898;52.786;6.892;2022-07-06T16:52:01;3.95;;;2.50;;
52668;SDS011;59898;52.786;6.892;2022-07-06T16:55:23;6.45;;;2.38;;
52668;SDS011;59898;52.786;6.892;2022-07-06T16:58:44;3.97;;;2.80;;
52668;SDS011;59898;52.786;6.892;2022-07-06T17:02:06;5.78;;;2.60;;
52668;SDS011;59898;52.786;6.892;2022-07-06T17:05:27;5.43;;;2.67;;
52668;SDS011;59898;52.786;6.892;2022-07-06T17:08:48;5.90;;;2.60;;
52668;SDS011;59898;52.786;6.892;2022-07-06T17:12:08;7.10;;;2.30;;
52668;SDS011;59898;52.786;6.892;2022-07-06T17:15:29;4.15;;;2.80;;
52668;SDS011;59898;52.786;6.892;2022-07-06T17:18:51;6.22;;;3.08;;
52668;SDS011;59898;52.786;6.892;2022-07-06T17:22:11;7.97;;;3.42;;
52668;SDS011;59898;52.786;6.892;2022-07-06T17:25:32;4.03;;;2.50;;
52668;SDS011;59898;52.786;6.892;2022-07-06T17:28:53;7.10;;;2.90;;
52668;SDS011;59898;52.786;6.892;2022-07-06T17:32:16;5.60;;;2.85;;
52668;SDS011;59898;52.786;6.892;2022-07-06T17:35:36;10.75;;;4.95;;
52668;SDS011;59898;52.786;6.892;2022-07-06T17:38:59;7.65;;;3.10;;
52668;SDS011;59898;52.786;6.892;2022-07-06T17:42:20;4.68;;;2.90;;
52668;SDS011;59898;52.786;6.892;2022-07-06T17:45:40;9.13;;;3.45;;
52668;SDS011;59898;52.786;6.892;2022-07-06T17:49:01;4.03;;;3.25;;
52668;SDS011;59898;52.786;6.892;2022-07-06T17:52:22;4.47;;;3.33;;
52668;SDS011;59898;52.786;6.892;2022-07-06T17:55:42;7.40;;;3.75;;
52668;SDS011;59898;52.786;6.892;2022-07-06T17:59:05;6.00;;;3.50;;
52668;SDS011;59898;52.786;6.892;2022-07-06T18:02:25;7.55;;;4.15;;
52668;SDS011;59898;52.786;6.892;2022-07-06T18:05:46;6.28;;;3.20;;
52668;SDS011;59898;52.786;6.892;2022-07-06T18:09:08;6.80;;;3.72;;
52668;SDS011;59898;52.786;6.892;2022-07-06T18:12:29;4.57;;;3.95;;
52668;SDS011;59898;52.786;6.892;2022-07-06T18:15:49;7.43;;;3.75;;
52668;SDS011;59898;52.786;6.892;2022-07-06T18:19:12;7.30;;;4.57;;
52668;SDS011;59898;52.786;6.892;2022-07-06T18:22:33;6.57;;;3.67;;
52668;SDS011;59898;52.786;6.892;2022-07-06T18:25:54;6.13;;;3.97;;
52668;SDS011;59898;52.786;6.892;2022-07-06T18:29:15;7.78;;;4.13;;
52668;SDS011;59898;52.786;6.892;2022-07-06T18:32:35;4.45;;;3.78;;
52668;SDS011;59898;52.786;6.892;2022-07-06T18:35:56;6.53;;;4.07;;
52668;SDS011;59898;52.786;6.892;2022-07-06T18:39:17;8.63;;;3.53;;
52668;SDS011;59898;52.786;6.892;2022-07-06T18:42:38;6.18;;;3.40;;
52668;SDS011;59898;52.786;6.892;2022-07-06T18:46:01;9.00;;;3.53;;
52668;SDS011;59898;52.786;6.892;2022-07-06T18:49:23;4.18;;;3.60;;
52668;SDS011;59898;52.786;6.892;2022-07-06T18:52:43;5.57;;;3.85;;
52668;SDS011;59898;52.786;6.892;2022-07-06T18:56:04;9.98;;;4.25;;
52668;SDS011;59898;52.786;6.892;2022-07-06T18:59:25;8.57;;;5.00;;
52668;SDS011;59898;52.786;6.892;2022-07-06T19:02:46;8.52;;;5.78;;
52668;SDS011;59898;52.786;6.892;2022-07-06T19:06:07;6.93;;;4.97;;
52668;SDS011;59898;52.786;6.892;2022-07-06T19:09:27;7.22;;;5.57;;
52668;SDS011;59898;52.786;6.892;2022-07-06T19:12:48;8.00;;;5.22;;
52668;SDS011;59898;52.786;6.892;2022-07-06T19:16:10;14.27;;;8.38;;
52668;SDS011;59898;52.786;6.892;2022-07-06T19:19:31;7.63;;;5.93;;
52668;SDS011;59898;52.786;6.892;2022-07-06T19:22:52;9.18;;;6.90;;
52668;SDS011;59898;52.786;6.892;2022-07-06T19:26:13;12.98;;;6.88;;
52668;SDS011;59898;52.786;6.892;2022-07-06T19:29:33;10.90;;;7.35;;
52668;SDS011;59898;52.786;6.892;2022-07-06T19:32:54;9.43;;;7.80;;
52668;SDS011;59898;52.786;6.892;2022-07-06T19:36:15;12.80;;;6.45;;
52668;SDS011;59898;52.786;6.892;2022-07-06T19:39:36;9.65;;;7.50;;
52668;SDS011;59898;52.786;6.892;2022-07-06T19:42:56;11.57;;;9.15;;
52668;SDS011;59898;52.786;6.892;2022-07-06T19:46:17;10.43;;;7.40;;
52668;SDS011;59898;52.786;6.892;2022-07-06T19:49:38;12.13;;;7.55;;
52668;SDS011;59898;52.786;6.892;2022-07-06T19:52:58;10.68;;;7.80;;
52668;SDS011;59898;52.786;6.892;2022-07-06T19:56:19;9.65;;;7.40;;
52668;SDS011;59898;52.786;6.892;2022-07-06T19:59:40;10.60;;;8.10;;
52668;SDS011;59898;52.786;6.892;2022-07-06T20:03:00;10.00;;;7.70;;
52668;SDS011;59898;52.786;6.892;2022-07-06T20:06:21;11.50;;;7.75;;
52668;SDS011;59898;52.786;6.892;2022-07-06T20:09:42;14.20;;;8.32;;
52668;SDS011;59898;52.786;6.892;2022-07-06T20:13:04;15.45;;;9.05;;
52668;SDS011;59898;52.786;6.892;2022-07-06T20:16:26;29.20;;;19.77;;
52668;SDS011;59898;52.786;6.892;2022-07-06T20:19:47;13.25;;;9.48;;
52668;SDS011;59898;52.786;6.892;2022-07-06T20:23:08;13.25;;;9.57;;
52668;SDS011;59898;52.786;6.892;2022-07-06T20:26:29;16.48;;;9.50;;
52668;SDS011;59898;52.786;6.892;2022-07-06T20:29:49;13.55;;;9.35;;
52668;SDS011;59898;52.786;6.892;2022-07-06T20:33:11;11.73;;;9.15;;
52668;SDS011;59898;52.786;6.892;2022-07-06T20:36:32;11.80;;;9.73;;
52668;SDS011;59898;52.786;6.892;2022-07-06T20:39:53;13.73;;;9.23;;
52668;SDS011;59898;52.786;6.892;2022-07-06T20:43:13;15.75;;;10.77;;